Time;durP1;ratioP1;P1;durP2;ratioP2;P2;SDS_P1;SDS_P2;PMS_P1;PMS_P2;Temp;Humidity;BMP_temperature;BMP_pressure;BME280_temperature;BME280_humidity;BME280_pressure;Samples;Min_cycle;Max_cycle;Signal;HPM_P1;HPM_P2
2022/08/09 00:01:21;;;;;;;3.90;3.50;;;;;;;28.88;39.87;101048.94;4750604;30;20063;-76
2022/08/09 00:03:50;;;;;;;5.25;3.63;;;;;;;28.94;39.89;101052.19;4750921;30;20048;-76
2022/08/09 00:06:38;;;;;;;3.60;3.30;;;;;;;28.72;40.21;101051.25;4750823;30;20415;-75
2022/08/09 00:09:11;;;;;;;3.05;2.72;;;;;;;28.77;40.49;101048.84;4750842;30;20073;-76
2022/08/09 00:11:40;;;;;;;3.75;3.45;;;;;;;28.87;40.68;101052.94;4750806;30;20399;-76
2022/08/09 00:14:29;;;;;;;3.25;2.95;;;;;;;28.95;39.65;101048.16;4751234;30;20060;-76
2022/08/09 00:17:05;;;;;;;3.65;3.35;;;;;;;28.91;40.92;101050.97;4751010;30;20519;-76
2022/08/09 00:19:33;;;;;;;3.65;3.33;;;;;;;28.65;40.34;101047.22;4750629;30;20500;-76
2022/08/09 00:22:02;;;;;;;3.55;3.25;;;;;;;28.73;40.43;101052.88;4750873;30;20056;-76
2022/08/09 00:24:31;;;;;;;3.90;3.42;;;;;;;28.90;40.16;101057.81;4750695;30;20060;-76
2022/08/09 00:27:00;;;;;;;4.30;3.90;;;;;;;28.88;40.14;101057.38;4750690;30;20060;-76
2022/08/09 00:29:28;;;;;;;3.67;3.30;;;;;;;28.86;39.87;101051.34;4750684;30;20096;-76
2022/08/09 00:32:17;;;;;;;4.90;3.80;;;;;;;29.03;39.76;101037.72;4750639;30;20060;-76
2022/08/09 00:35:02;;;;;;;7.05;3.83;;;;;;;28.84;40.57;101043.25;4750763;30;20100;-76
2022/08/09 00:37:30;;;;;;;4.88;3.30;;;;;;;28.90;40.42;101032.47;4752203;30;20048;-76
2022/08/09 00:39:59;;;;;;;3.63;3.25;;;;;;;28.86;40.16;101034.44;4753601;30;20067;-76
2022/08/09 00:42:43;;;;;;;3.63;3.08;;;;;;;28.98;40.89;101041.72;4753665;30;20056;-76
2022/08/09 00:45:31;;;;;;;5.10;3.67;;;;;;;28.86;40.04;101045.72;4753526;30;20055;-76
2022/08/09 00:48:03;;;;;;;4.35;3.67;;;;;;;28.79;40.76;101045.66;4747397;30;20059;-76
2022/08/09 00:50:32;;;;;;;4.07;2.80;;;;;;;28.82;40.17;101042.03;4748137;30;20083;-76
2022/08/09 00:53:05;;;;;;;4.35;3.55;;;;;;;28.77;40.28;101048.84;4753881;30;20056;-76
2022/08/09 00:55:38;;;;;;;;;;;;;;;28.93;39.34;101042.91;4754263;30;20401;-76
2022/08/09 00:58:26;;;;;;;3.53;3.22;;;;;;;28.81;40.03;101035.59;4743713;30;19937;-76
2022/08/09 01:00:57;;;;;;;6.80;3.47;;;;;;;28.84;39.86;101036.81;4753205;30;20075;-76
2022/08/09 01:03:53;;;;;;;3.75;3.33;;;;;;;28.69;40.25;101033.16;4753379;30;20071;-77
2022/08/09 01:06:38;;;;;;;5.13;3.92;;;;;;;28.77;39.81;101025.50;4753543;30;20067;-76
2022/08/09 01:09:30;;;;;;;4.00;3.15;;;;;;;28.81;40.35;101031.97;4753052;30;20060;-76
2022/08/09 01:12:14;;;;;;;4.13;3.55;;;;;;;28.73;39.58;101024.72;4753536;30;20052;-76
2022/08/09 01:14:50;;;;;;;4.32;3.72;;;;;;;28.80;39.77;101028.38;4752916;30;20075;-76
2022/08/09 01:17:32;;;;;;;4.80;3.40;;;;;;;28.53;39.83;101025.00;4752849;30;20063;-76
2022/08/09 01:20:29;;;;;;;4.07;3.60;;;;;;;28.67;39.72;101019.44;4752646;30;20052;-77
2022/08/09 01:23:29;;;;;;;5.68;3.50;;;;;;;28.49;40.30;101013.72;4751959;30;20071;-76
2022/08/09 01:26:50;;;;;;;4.63;3.83;;;;;;;28.38;39.61;101027.75;4752916;30;20067;-76
2022/08/09 01:29:46;;;;;;;3.88;3.33;;;;;;;28.48;40.23;101029.00;4752755;30;20068;-76
2022/08/09 01:32:32;;;;;;;4.10;3.38;;;;;;;28.42;39.50;101034.22;4752347;30;20052;-75
2022/08/09 01:35:08;;;;;;;3.65;3.35;;;;;;;28.53;39.13;101036.25;4752989;30;20052;-76
2022/08/09 01:38:01;;;;;;;8.82;3.58;;;;;;;28.29;39.99;101044.16;4753116;30;20067;-76
2022/08/09 01:40:42;;;;;;;4.78;3.70;;;;;;;28.33;39.49;101042.19;4752610;30;20068;-77
2022/08/09 01:43:11;;;;;;;3.70;3.40;;;;;;;28.47;40.04;101043.47;4752532;30;20067;-77
2022/08/09 01:45:41;;;;;;;3.38;3.08;;;;;;;28.26;39.51;101050.59;4752790;30;20051;-76
2022/08/09 01:48:16;;;;;;;3.47;2.95;;;;;;;28.32;39.40;101051.00;4744163;30;20409;-78
2022/08/09 01:50:50;;;;;;;3.67;3.30;;;;;;;28.37;40.14;101053.47;4748584;30;20417;-77
2022/08/09 01:53:22;;;;;;;6.43;3.60;;;;;;;28.41;39.24;101057.94;4752642;30;20516;-77
2022/08/09 01:55:56;;;;;;;;;;;;;;;28.32;40.20;101053.81;4752824;30;20063;-77
2022/08/09 01:58:25;;;;;;;3.90;3.38;;;;;;;28.26;40.06;101059.03;4752510;30;19934;-77
2022/08/09 02:00:56;;;;;;;4.00;3.35;;;;;;;28.34;40.01;101063.50;4752755;30;20075;-77
2022/08/09 02:03:26;;;;;;;3.83;3.35;;;;;;;28.30;39.79;101054.22;4752469;30;20044;-76
2022/08/09 02:05:59;;;;;;;4.20;2.95;;;;;;;28.41;40.22;101069.19;4748767;30;20056;-76
2022/08/09 02:08:39;;;;;;;4.32;3.08;;;;;;;28.43;40.07;101061.16;4756977;30;20059;-76
2022/08/09 02:11:28;;;;;;;4.32;3.65;;;;;;;28.37;39.84;101059.91;4747675;30;20049;-79
2022/08/09 02:14:12;;;;;;;4.50;3.40;;;;;;;28.24;40.09;101058.63;4745579;30;20052;-77
2022/08/09 02:16:54;;;;;;;4.40;3.47;;;;;;;28.13;40.45;101066.94;4752247;30;20055;-77
2022/08/09 02:19:43;;;;;;;5.38;3.55;;;;;;;28.38;40.33;101075.59;4753820;30;20061;-76
2022/08/09 02:22:34;;;;;;;4.60;3.60;;;;;;;28.13;40.24;101083.81;4761489;30;20059;-77
2022/08/09 02:25:34;;;;;;;4.18;3.55;;;;;;;28.35;40.65;101076.34;4757573;30;20056;-76
2022/08/09 02:28:19;;;;;;;3.90;3.20;;;;;;;28.24;39.80;101081.13;4754488;30;20060;-76
2022/08/09 02:30:57;;;;;;;3.90;3.45;;;;;;;28.18;40.34;101080.63;4760588;30;20514;-77
2022/08/09 02:33:30;;;;;;;3.47;2.90;;;;;;;28.19;40.43;101075.81;4762279;30;20052;-76
2022/08/09 02:36:28;;;;;;;3.25;2.95;;;;;;;28.34;39.69;101076.75;4761059;30;20059;-76
2022/08/09 02:39:05;;;;;;;4.07;3.55;;;;;;;28.40;40.36;101073.19;4755057;30;20090;-76
2022/08/09 02:42:04;;;;;;;4.97;3.40;;;;;;;28.35;39.91;101070.72;4758189;30;20150;-76
2022/08/09 02:44:40;;;;;;;3.00;2.63;;;;;;;28.30;39.95;101066.28;4764455;30;20056;-76
2022/08/09 02:47:11;;;;;;;3.40;3.00;;;;;;;28.39;39.82;101065.16;4759839;30;20056;-76
2022/08/09 02:49:46;;;;;;;3.10;2.88;;;;;;;28.19;40.65;101059.75;4740018;30;20044;-77
2022/08/09 02:52:50;;;;;;;4.15;3.10;;;;;;;28.38;40.02;101055.06;4751742;30;20060;-77
2022/08/09 02:55:25;;;;;;;3.45;2.85;;;;;;;27.99;39.71;101054.38;4751802;30;20055;-76
2022/08/09 02:58:16;;;;;;;4.50;2.90;;;;;;;27.93;40.46;101057.91;4740035;30;20067;-76
2022/08/09 03:01:07;;;;;;;3.10;2.60;;;;;;;27.65;40.86;101062.91;4750690;30;20063;-76
2022/08/09 03:03:43;;;;;;;3.22;2.80;;;;;;;27.56;40.68;101068.81;4751422;30;20055;-76
2022/08/09 03:06:33;;;;;;;5.15;3.10;;;;;;;27.75;40.79;101058.56;4751254;30;20079;-76
2022/08/09 03:09:03;;;;;;;2.70;2.47;;;;;;;27.53;40.87;101063.16;4751610;30;20056;-75
2022/08/09 03:11:34;;;;;;;3.30;3.00;;;;;;;27.60;41.10;101058.44;4751093;30;20060;-76
2022/08/09 03:14:24;;;;;;;3.08;2.80;;;;;;;27.64;41.35;101052.84;4751241;30;20064;-76
2022/08/09 03:16:56;;;;;;;3.80;2.83;;;;;;;27.61;40.79;101060.06;4751433;30;20400;-76
2022/08/09 03:19:26;;;;;;;3.28;2.97;;;;;;;27.49;40.69;101049.06;4751099;30;20064;-76
2022/08/09 03:22:15;;;;;;;6.32;3.40;;;;;;;27.47;41.79;101048.66;4751189;30;20068;-76
2022/08/09 03:24:58;;;;;;;4.93;3.10;;;;;;;27.43;41.72;101053.41;4751518;30;20056;-76
2022/08/09 03:27:49;;;;;;;3.20;2.90;;;;;;;27.37;41.75;101050.97;4751046;30;20508;-76
2022/08/09 03:30:17;;;;;;;3.25;2.78;;;;;;;27.47;41.40;101040.22;4751174;30;20044;-76
2022/08/09 03:33:05;;;;;;;4.22;2.80;;;;;;;27.48;41.23;101039.03;4751016;30;20492;-75
2022/08/09 03:35:49;;;;;;;4.60;2.72;;;;;;;27.40;41.50;101046.56;4751383;30;20068;-76
2022/08/09 03:38:40;;;;;;;2.95;2.65;;;;;;;27.53;41.11;101049.09;4751163;30;20063;-76
2022/08/09 03:41:12;;;;;;;3.00;2.75;;;;;;;27.32;41.36;101048.50;4750792;30;20072;-76
2022/08/09 03:43:44;;;;;;;3.30;2.92;;;;;;;27.42;42.29;101046.19;4751053;30;20047;-76
2022/08/09 03:46:32;;;;;;;3.13;2.83;;;;;;;27.39;41.93;101047.78;4761725;30;20075;-76
2022/08/09 03:49:01;;;;;;;4.88;3.10;;;;;;;27.35;41.86;101055.34;4738336;30;20079;-76
2022/08/09 03:51:32;;;;;;;3.97;3.05;;;;;;;27.48;41.69;101051.06;4751123;30;20055;-76
2022/08/09 03:54:20;;;;;;;4.03;2.85;;;;;;;27.54;41.95;101053.53;4751090;30;20416;-76
2022/08/09 03:57:00;;;;;;;3.28;2.88;;;;;;;27.52;41.40;101061.53;4750906;30;20056;-76
2022/08/09 03:59:40;;;;;;;3.20;2.90;;;;;;;27.49;41.52;101068.75;4750825;30;20040;-76
2022/08/09 04:02:26;;;;;;;3.33;3.03;;;;;;;27.55;41.90;101067.19;4750915;30;20512;-76
2022/08/09 04:04:58;;;;;;;5.95;3.33;;;;;;;27.44;41.96;101069.09;4751192;30;20060;-76
2022/08/09 04:07:28;;;;;;;3.63;3.10;;;;;;;27.40;42.26;101059.81;4751145;30;20063;-76
2022/08/09 04:10:16;;;;;;;3.22;2.58;;;;;;;27.50;41.81;101067.53;4750983;30;20412;-76
2022/08/09 04:12:50;;;;;;;3.10;2.80;;;;;;;27.52;42.03;101067.97;4752563;30;20064;-76
2022/08/09 04:15:22;;;;;;;3.58;2.90;;;;;;;27.16;42.47;101070.38;4754453;30;20056;-76
2022/08/09 04:18:11;;;;;;;4.28;3.17;;;;;;;27.33;41.43;101071.78;4753936;30;20071;-78
2022/08/09 04:20:46;;;;;;;3.20;2.78;;;;;;;27.18;42.04;101079.25;4754053;30;20041;-76
2022/08/09 04:23:14;;;;;;;4.35;2.85;;;;;;;27.43;41.39;101082.34;4766878;30;20060;-76
2022/08/09 04:25:44;;;;;;;7.55;3.50;;;;;;;27.51;41.68;101086.03;4754024;30;20060;-76
2022/08/09 04:28:26;;;;;;;2.60;2.40;;;;;;;27.23;41.80;101087.34;4753809;30;20056;-76
2022/08/09 04:31:03;;;;;;;5.10;3.50;;;;;;;27.30;41.57;101089.41;4754099;30;20056;-77
2022/08/09 04:33:37;;;;;;;3.25;2.95;;;;;;;27.33;41.52;101094.25;4753684;30;20059;-77
2022/08/09 04:36:22;;;;;;;3.15;2.72;;;;;;;27.04;42.55;101094.75;4753925;30;20071;-76
2022/08/09 04:38:52;;;;;;;3.75;3.15;;;;;;;27.31;42.20;101096.63;4753763;30;20056;-76
2022/08/09 04:41:21;;;;;;;3.03;2.83;;;;;;;27.14;42.34;101098.03;4753578;30;20460;-76
2022/08/09 04:43:52;;;;;;;3.95;2.88;;;;;;;27.10;42.36;101103.63;4753615;30;20067;-76
2022/08/09 04:46:34;;;;;;;3.33;2.92;;;;;;;27.14;42.13;101098.03;4753877;30;20484;-76
2022/08/09 04:49:22;;;;;;;3.58;2.80;;;;;;;27.39;42.59;101101.16;4738206;30;20049;-81
2022/08/09 04:52:10;;;;;;;5.45;2.88;;;;;;;27.82;41.65;101098.03;4747950;30;20549;-81
2022/08/09 04:54:50;;;;;;;3.30;2.70;;;;;;;27.67;41.27;101107.50;4766362;30;20056;-81
2022/08/09 04:57:19;;;;;;;3.70;3.05;;;;;;;28.21;40.87;101101.56;4753931;30;20502;-81
2022/08/09 04:59:53;;;;;;;2.92;2.47;;;;;;;28.65;40.00;101109.16;4752328;30;20400;-81
2022/08/09 05:02:24;;;;;;;4.43;3.05;;;;;;;28.81;39.28;101097.56;4753769;30;20416;-81
2022/08/09 05:04:54;;;;;;;3.58;3.28;;;;;;;28.32;39.82;101119.38;4753615;30;20052;-81
2022/08/09 05:07:23;;;;;;;4.72;3.03;;;;;;;28.50;39.53;101119.47;4753568;30;20048;-81
2022/08/09 05:09:54;;;;;;;3.33;3.03;;;;;;;28.76;39.52;101119.63;4753473;30;20053;-81
2022/08/09 05:12:22;;;;;;;3.10;2.85;;;;;;;28.47;40.44;101116.63;4753064;30;20052;-81
2022/08/09 05:14:50;;;;;;;3.83;2.78;;;;;;;28.61;39.72;101124.38;4751886;30;20048;-81
2022/08/09 05:17:18;;;;;;;3.95;2.83;;;;;;;28.50;40.16;101124.31;4752344;30;20052;-81
2022/08/09 05:20:08;;;;;;;3.60;2.88;;;;;;;28.61;40.17;101125.19;4753208;30;20040;-82
2022/08/09 05:22:36;;;;;;;4.22;3.05;;;;;;;28.14;41.08;101134.06;4753114;30;20052;-81
2022/08/09 05:25:23;;;;;;;3.97;3.00;;;;;;;28.22;40.32;101132.16;4753470;30;20066;-81
2022/08/09 05:27:59;;;;;;;2.95;2.65;;;;;;;28.46;40.96;101129.09;4752201;30;20044;-81
2022/08/09 05:30:27;;;;;;;4.15;2.92;;;;;;;27.95;41.76;101137.09;4753388;30;20068;-81
2022/08/09 05:32:59;;;;;;;2.90;2.65;;;;;;;27.56;42.45;101139.06;4753214;30;20052;-81
2022/08/09 05:35:28;;;;;;;2.80;2.60;;;;;;;28.13;41.76;101132.44;4753191;30;20052;-81
2022/08/09 05:37:58;;;;;;;3.60;2.85;;;;;;;28.08;41.84;101138.44;4753312;30;20051;-82
2022/08/09 05:40:27;;;;;;;2.80;2.60;;;;;;;27.86;42.34;101137.44;4752708;30;20059;-81
2022/08/09 05:42:56;;;;;;;3.50;3.20;;;;;;;28.22;41.69;101131.31;4753030;30;20404;-81
2022/08/09 05:45:28;;;;;;;3.60;2.88;;;;;;;28.41;40.88;101128.28;4752994;30;20048;-81
2022/08/09 05:48:15;;;;;;;4.20;2.63;;;;;;;28.35;41.07;101135.44;4736092;30;20053;-81
2022/08/09 05:50:47;;;;;;;4.65;3.13;;;;;;;28.55;40.83;101126.78;4749252;30;20059;-81
2022/08/09 05:53:35;;;;;;;5.10;2.83;;;;;;;28.46;40.92;101140.34;4752892;30;20044;-81
2022/08/09 05:56:23;;;;;;;3.65;2.95;;;;;;;28.42;40.72;101141.16;4752740;30;20507;-82
2022/08/09 05:59:02;;;;;;;3.45;2.92;;;;;;;28.76;40.45;101133.72;4752995;30;20063;-81
2022/08/09 06:01:30;;;;;;;3.95;2.90;;;;;;;28.65;40.56;101137.31;4751969;30;20668;-80
2022/08/09 06:04:08;;;;;;;2.90;2.50;;;;;;;28.68;41.06;101130.88;4764676;30;20060;-81
2022/08/09 06:06:39;;;;;;;4.85;3.35;;;;;;;28.82;40.41;101138.59;4740446;30;20041;-82
2022/08/09 06:09:18;;;;;;;3.50;2.70;;;;;;;29.06;40.33;101129.88;4762682;30;20056;-81
2022/08/09 06:12:06;;;;;;;2.88;2.67;;;;;;;29.13;38.80;101140.38;4751903;30;20052;-81
2022/08/09 06:14:36;;;;;;;3.60;3.00;;;;;;;29.42;38.75;101135.66;4748470;30;20055;-81
2022/08/09 06:17:10;;;;;;;3.25;2.70;;;;;;;29.65;38.25;101145.84;4751002;30;20059;-80
2022/08/09 06:19:40;;;;;;;3.25;2.60;;;;;;;28.90;38.96;101138.66;4751616;30;20381;-80
2022/08/09 06:22:10;;;;;;;2.47;2.20;;;;;;;29.41;38.45;101133.25;4750324;30;20055;-81
2022/08/09 06:24:43;;;;;;;3.30;2.47;;;;;;;28.86;38.85;101138.66;4764558;30;20055;-80
2022/08/09 06:27:11;;;;;;;2.97;2.67;;;;;;;29.20;38.63;101126.31;4754111;30;20713;-81
2022/08/09 06:29:43;;;;;;;3.58;2.70;;;;;;;28.65;39.38;101120.41;4751331;30;20500;-80
2022/08/09 06:32:26;;;;;;;2.40;2.20;;;;;;;28.89;38.97;101139.88;4749469;30;20059;-80
2022/08/09 06:35:14;;;;;;;3.80;2.30;;;;;;;29.29;38.59;101123.13;4758489;30;20527;-80
2022/08/09 06:37:42;;;;;;;2.78;2.58;;;;;;;29.60;38.51;101132.13;4751327;30;20048;-81
2022/08/09 06:40:30;;;;;;;2.85;2.40;;;;;;;29.31;38.82;101134.81;4750238;30;20053;-80
2022/08/09 06:43:00;;;;;;;4.03;2.70;;;;;;;29.20;39.12;101143.25;4749792;30;20052;-80
2022/08/09 06:45:28;;;;;;;4.38;2.03;;;;;;;29.32;38.74;101140.06;4766785;30;20417;-81
2022/08/09 06:48:16;;;;;;;3.55;2.70;;;;;;;29.23;38.69;101143.25;4751411;30;20404;-80
2022/08/09 06:51:01;;;;;;;3.33;2.40;;;;;;;29.49;38.60;101149.00;4752826;30;20052;-81
2022/08/09 06:53:31;;;;;;;2.60;2.40;;;;;;;29.68;37.92;101147.88;4751916;30;20056;-81
2022/08/09 06:56:08;;;;;;;4.30;2.50;;;;;;;29.55;37.67;101155.06;4748126;30;20055;-80
2022/08/09 06:58:38;;;;;;;4.53;2.30;;;;;;;29.96;37.42;101151.91;4747380;30;20401;-80
2022/08/09 07:01:26;;;;;;;3.28;2.85;;;;;;;30.14;37.51;101162.44;4751285;30;20062;-81
2022/08/09 07:04:14;;;;;;;2.55;2.35;;;;;;;29.59;37.48;101158.72;4750084;30;20048;-80
2022/08/09 07:06:47;;;;;;;2.80;2.13;;;;;;;29.50;38.23;101159.91;4751354;30;20057;-80
2022/08/09 07:09:30;;;;;;;2.67;2.47;;;;;;;30.11;37.79;101171.75;4754437;30;20067;-80
2022/08/09 07:12:19;;;;;;;2.58;2.28;;;;;;;29.65;37.69;101174.03;4751102;30;20052;-80
2022/08/09 07:15:05;;;;;;;3.00;2.30;;;;;;;29.63;38.85;101168.78;4754436;30;20070;-81
2022/08/09 07:17:53;;;;;;;3.60;2.22;;;;;;;29.70;38.38;101170.81;4765823;30;20056;-78
2022/08/09 07:20:29;;;;;;;2.70;2.50;;;;;;;29.44;38.74;101164.28;4749778;30;20052;-79
2022/08/09 07:22:58;;;;;;;3.42;2.28;;;;;;;29.85;38.90;101170.84;4750341;30;20416;-78
2022/08/09 07:25:26;;;;;;;2.55;2.15;;;;;;;29.90;38.46;101176.91;4750296;30;20404;-79
2022/08/09 07:27:55;;;;;;;3.65;2.50;;;;;;;29.99;38.59;101170.88;4743573;30;20083;-79
2022/08/09 07:30:24;;;;;;;3.00;2.60;;;;;;;30.00;38.16;101164.03;4748062;30;20056;-78
2022/08/09 07:32:59;;;;;;;5.93;3.20;;;;;;;30.03;38.34;101174.53;4750600;30;20056;-78
2022/08/09 07:35:27;;;;;;;2.22;2.03;;;;;;;29.88;37.43;101170.06;4749348;30;20123;-77
2022/08/09 07:38:01;;;;;;;;;;;;;;;30.22;37.39;101171.72;4750592;30;20067;-78
2022/08/09 07:40:28;;;;;;;2.13;2.00;;;;;;;30.39;36.99;101175.78;4749029;30;20037;-77
2022/08/09 07:43:16;;;;;;;5.63;2.60;;;;;;;30.20;36.55;101174.94;4749942;30;20052;-77
2022/08/09 07:45:45;;;;;;;2.15;1.95;;;;;;;30.30;36.60;101188.28;4750584;30;20052;-77
2022/08/09 07:48:13;;;;;;;2.92;2.15;;;;;;;30.19;37.60;101181.03;4752076;30;20052;-77
2022/08/09 07:51:00;;;;;;;;;;;;;;;30.35;36.66;101183.44;4749055;30;20074;-81
2022/08/09 07:53:51;;;;;;;7.22;2.05;;;;;;;30.42;36.44;101186.25;4748308;30;19930;-82
2022/08/09 07:56:38;;;;;;;2.60;2.30;;;;;;;30.12;37.41;101176.16;4757744;30;20048;-81
2022/08/09 07:59:19;;;;;;;4.35;2.13;;;;;;;30.51;36.42;101177.38;4754815;30;20044;-82
2022/08/09 08:02:01;;;;;;;2.28;2.08;;;;;;;30.56;36.54;101177.75;4750607;30;20073;-82
2022/08/09 08:04:32;;;;;;;3.25;2.03;;;;;;;30.65;36.70;101185.03;4753173;30;20063;-82
2022/08/09 08:07:03;;;;;;;5.00;2.97;;;;;;;30.88;35.88;101172.53;4753316;30;20052;-82
2022/08/09 08:09:52;;;;;;;4.63;2.80;;;;;;;30.70;35.14;101184.66;4743912;30;20048;-82
2022/08/09 08:12:37;;;;;;;3.05;2.72;;;;;;;30.54;35.31;101179.41;4746913;30;20493;-81
2022/08/09 08:15:15;;;;;;;2.97;2.35;;;;;;;31.02;35.94;101169.63;4752401;30;20067;-82
2022/08/09 08:17:50;;;;;;;4.60;2.58;;;;;;;31.03;34.82;101165.59;4764511;30;20063;-81
2022/08/09 08:20:28;;;;;;;2.88;2.10;;;;;;;31.30;35.45;101167.16;4762652;30;20048;-81
2022/08/09 08:23:02;;;;;;;3.25;2.20;;;;;;;31.12;35.90;101165.16;4768253;30;20507;-80
2022/08/09 08:25:46;;;;;;;6.55;2.90;;;;;;;31.10;36.49;101162.78;4743622;30;20056;-81
2022/08/09 08:28:22;;;;;;;2.88;2.60;;;;;;;31.09;36.16;101172.44;4746770;30;20063;-83
2022/08/09 08:31:01;;;;;;;7.30;2.53;;;;;;;31.43;35.51;101173.97;4752451;30;20048;-83
2022/08/09 08:33:43;;;;;;;2.60;2.40;;;;;;;31.56;35.05;101177.13;4754507;30;20056;-81
2022/08/09 08:36:24;;;;;;;2.58;2.38;;;;;;;31.49;35.26;101165.84;4765409;30;20052;-80
2022/08/09 08:38:58;;;;;;;4.03;2.28;;;;;;;31.78;34.79;101174.97;4754746;30;20419;-80
2022/08/09 08:41:28;;;;;;;2.85;2.50;;;;;;;31.48;34.28;101167.88;4764364;30;20059;-79
2022/08/09 08:44:18;;;;;;;3.35;2.60;;;;;;;31.45;35.14;101173.53;4746904;30;20048;-83
2022/08/09 08:46:50;;;;;;;;;;;;;;;31.49;35.33;101174.34;4751703;30;20047;-83
2022/08/09 08:49:39;;;;;;;2.45;2.25;;;;;;;31.46;34.84;101190.09;4747270;30;19934;-81
2022/08/09 08:52:17;;;;;;;2.78;2.58;;;;;;;31.13;34.76;101171.63;4751443;30;20067;-83
2022/08/09 08:55:07;;;;;;;2.53;2.35;;;;;;;30.95;35.71;101170.50;4749333;30;20408;-81
2022/08/09 08:57:34;;;;;;;3.22;2.60;;;;;;;31.29;35.73;101169.19;4750276;30;20133;-82
2022/08/09 09:00:08;;;;;;;3.22;2.88;;;;;;;31.65;35.16;101173.84;4749765;30;20051;-82
2022/08/09 09:02:51;;;;;;;6.97;2.93;;;;;;;31.67;35.31;101167.78;4745240;30;20064;-83
2022/08/09 09:05:24;;;;;;;3.55;2.45;;;;;;;31.68;34.79;101170.19;4745988;30;20317;-84
2022/08/09 09:08:14;;;;;;;3.33;2.35;;;;;;;32.03;34.07;101164.75;4757359;30;20044;-84
2022/08/09 09:11:04;;;;;;;3.30;3.00;;;;;;;32.09;34.94;101174.41;4744033;30;20103;-83
2022/08/09 09:13:40;;;;;;;4.32;2.78;;;;;;;31.93;34.33;101165.63;4749003;30;20044;-82
2022/08/09 09:16:28;;;;;;;2.80;2.60;;;;;;;31.85;35.21;101171.31;4751915;30;20056;-82
2022/08/09 09:19:05;;;;;;;6.10;2.90;;;;;;;31.72;35.30;101170.97;4749879;30;20056;-83
2022/08/09 09:21:58;;;;;;;;;;;;;;;31.80;34.13;101168.13;4754748;30;20527;-81
2022/08/09 09:24:37;;;;;;;3.30;2.15;;;;;;;32.11;34.21;101166.28;4748278;30;20398;-83
2022/08/09 09:27:08;;;;;;;3.85;3.05;;;;;;;31.95;34.27;101175.31;4750624;30;20059;-82
2022/08/09 09:29:57;;;;;;;3.47;2.88;;;;;;;32.21;33.07;101167.44;4745918;30;20053;-83
2022/08/09 09:33:00;;;;;;;3.22;2.85;;;;;;;32.38;32.90;101174.16;4750003;30;20043;-81
2022/08/09 09:35:56;;;;;;;5.10;3.13;;;;;;;32.32;32.98;101164.50;4745748;30;20060;-82
2022/08/09 09:38:56;;;;;;;2.65;2.45;;;;;;;32.33;33.19;101160.44;4739201;30;20062;-83
2022/08/09 09:41:30;;;;;;;3.90;2.70;;;;;;;32.69;33.04;101165.78;4744949;30;20056;-82
2022/08/09 09:44:23;;;;;;;3.47;2.30;;;;;;;32.80;32.92;101160.00;4740937;30;20516;-84
2022/08/09 09:47:08;;;;;;;4.53;2.67;;;;;;;32.81;32.14;101149.50;4762774;30;20062;-81
2022/08/09 09:49:38;;;;;;;5.78;2.40;;;;;;;32.91;33.19;101159.91;4739399;30;20056;-83
2022/08/09 09:52:27;;;;;;;2.53;2.33;;;;;;;32.96;32.57;101144.50;4749995;30;20071;-83
2022/08/09 09:55:07;;;;;;;5.95;2.40;;;;;;;33.05;32.38;101143.97;4752504;30;20527;-83
2022/08/09 09:57:57;;;;;;;2.50;2.25;;;;;;;33.12;32.53;101135.38;4750630;30;20047;-82
2022/08/09 10:00:31;;;;;;;3.08;2.60;;;;;;;32.96;32.73;101136.00;4746580;30;20055;-82
2022/08/09 10:03:01;;;;;;;2.88;2.63;;;;;;;33.00;32.62;101136.75;4744644;30;20063;-82
2022/08/09 10:05:57;;;;;;;2.50;2.30;;;;;;;33.19;32.68;101132.44;4752075;30;20060;-82
2022/08/09 10:08:31;;;;;;;2.75;2.38;;;;;;;33.11;33.10;101136.63;4751705;30;20500;-83
2022/08/09 10:11:24;;;;;;;4.72;3.67;;;;;;;33.29;33.06;101132.75;4750950;30;20059;-83
2022/08/09 10:14:26;;;;;;;3.75;2.67;;;;;;;33.22;33.07;101134.44;4752123;30;20059;-83
2022/08/09 10:17:10;;;;;;;4.03;2.78;;;;;;;33.19;32.94;101140.97;4750349;30;20052;-82
2022/08/09 10:20:05;;;;;;;5.28;2.83;;;;;;;33.44;31.40;101134.16;4754929;30;20385;-82
2022/08/09 10:22:42;;;;;;;2.85;2.65;;;;;;;33.63;32.03;101126.22;4754202;30;20067;-83
2022/08/09 10:25:12;;;;;;;2.90;2.63;;;;;;;32.92;32.77;101138.03;4758928;30;20071;-83
2022/08/09 10:27:43;;;;;;;2.80;2.60;;;;;;;33.14;32.96;101127.28;4744678;30;20055;-83
2022/08/09 10:30:26;;;;;;;2.83;2.53;;;;;;;33.04;32.80;101136.72;4753305;30;20048;-83
2022/08/09 10:33:18;;;;;;;7.15;3.05;;;;;;;33.45;32.57;101132.94;4748945;30;21392;-85
2022/08/09 10:36:08;;;;;;;3.03;2.67;;;;;;;33.69;31.65;101129.38;4754695;30;20125;-86
2022/08/09 10:38:42;;;;;;;4.57;2.80;;;;;;;33.63;32.60;101123.38;4746804;30;20051;-84
2022/08/09 10:41:26;;;;;;;3.35;3.05;;;;;;;33.40;32.83;101138.25;4750735;30;20582;-84
2022/08/09 10:43:56;;;;;;;2.88;2.67;;;;;;;33.44;32.11;101134.16;4750098;30;20519;-83
2022/08/09 10:46:56;;;;;;;3.42;2.75;;;;;;;33.50;32.15;101125.97;4746361;30;20048;-82
2022/08/09 10:49:40;;;;;;;3.00;2.60;;;;;;;33.62;32.25;101124.63;4743639;30;20408;-82
2022/08/09 10:52:49;;;;;;;3.13;2.67;;;;;;;34.03;31.93;101123.56;4750161;30;20052;-82
2022/08/09 10:55:26;;;;;;;2.65;2.38;;;;;;;34.26;31.53;101121.19;4749859;30;20488;-82
2022/08/09 10:57:56;;;;;;;3.70;2.80;;;;;;;33.77;31.76;101116.69;4749060;30;20049;-84
2022/08/09 11:00:39;;;;;;;3.15;2.80;;;;;;;33.97;32.40;101125.28;4746362;30;20050;-83
2022/08/09 11:03:28;;;;;;;3.08;2.60;;;;;;;34.12;31.25;101108.03;4748952;30;20036;-84
2022/08/09 11:06:17;;;;;;;3.72;3.05;;;;;;;34.21;31.45;101107.47;4748823;30;20056;-83
2022/08/09 11:08:48;;;;;;;3.65;2.67;;;;;;;34.15;31.10;101099.47;4749200;30;20055;-82
2022/08/09 11:11:22;;;;;;;4.03;2.85;;;;;;;34.51;31.02;101108.56;4761860;30;20412;-82
2022/08/09 11:14:28;;;;;;;2.67;2.47;;;;;;;34.78;30.60;101107.66;4749759;30;20052;-82
2022/08/09 11:16:59;;;;;;;2.80;2.60;;;;;;;34.38;31.59;101094.19;4748184;30;20397;-82
2022/08/09 11:19:49;;;;;;;4.57;2.80;;;;;;;34.49;31.51;101111.03;4750208;30;20518;-83
2022/08/09 11:22:42;;;;;;;6.45;2.88;;;;;;;34.11;31.82;101100.75;4750237;30;20040;-83
2022/08/09 11:25:16;;;;;;;5.30;3.07;;;;;;;34.10;30.70;101094.25;4749870;30;20052;-82
2022/08/09 11:27:49;;;;;;;;;;;;;;;33.90;31.50;101092.16;4751458;30;20064;-86
2022/08/09 11:30:35;;;;;;;3.00;2.80;;;;;;;34.06;31.35;101093.50;4750153;30;19933;-87
2022/08/09 11:33:24;;;;;;;3.20;2.75;;;;;;;34.35;31.14;101098.69;4752465;30;20052;-86
2022/08/09 11:35:59;;;;;;;2.95;2.75;;;;;;;34.72;30.94;101087.47;4753878;30;20477;-85
2022/08/09 11:38:33;;;;;;;3.28;2.75;;;;;;;34.98;30.46;101087.72;4760495;30;20044;-86
2022/08/09 11:41:12;;;;;;;2.88;2.67;;;;;;;34.83;30.69;101088.06;4751602;30;20068;-85
2022/08/09 11:43:51;;;;;;;2.97;2.55;;;;;;;35.16;30.28;101080.88;4748193;30;20492;-86
2022/08/09 11:46:21;;;;;;;3.28;2.97;;;;;;;35.02;30.62;101082.78;4749330;30;20512;-87
2022/08/09 11:49:03;;;;;;;3.07;2.77;;;;;;;35.10;30.92;101077.78;4745762;30;20052;-86
2022/08/09 11:52:02;;;;;;;2.72;2.53;;;;;;;35.28;29.60;101080.19;4752623;30;20400;-85
2022/08/09 11:55:28;;;;;;;2.97;2.78;;;;;;;35.09;31.03;101081.88;4751543;30;20059;-85
2022/08/09 11:58:18;;;;;;;3.50;2.78;;;;;;;35.34;29.42;101074.81;4750065;30;20048;-85
2022/08/09 12:01:00;;;;;;;6.20;2.72;;;;;;;35.56;29.52;101075.09;4748916;30;20055;-86
2022/08/09 12:03:29;;;;;;;2.13;2.03;;;;;;;35.75;29.34;101078.31;4746449;30;20052;-86
2022/08/09 12:06:25;;;;;;;3.15;2.90;;;;;;;35.50;29.40;101082.56;4750819;30;20043;-86
2022/08/09 12:09:08;;;;;;;2.72;2.53;;;;;;;35.29;29.80;101073.28;4752428;30;20053;-86
2022/08/09 12:12:00;;;;;;;3.00;2.70;;;;;;;35.26;30.26;101074.16;4760566;30;20048;-87
2022/08/09 12:14:32;;;;;;;3.22;2.67;;;;;;;35.02;29.04;101077.09;4745077;30;20059;-88
2022/08/09 12:17:20;;;;;;;2.92;2.35;;;;;;;35.02;29.88;101067.75;4750955;30;20060;-87
2022/08/09 12:20:16;;;;;;;5.88;2.92;;;;;;;35.28;30.09;101054.59;4749701;30;20052;-87
2022/08/09 12:22:58;;;;;;;2.75;2.55;;;;;;;35.54;29.56;101046.28;4744644;30;20056;-87
2022/08/09 12:25:32;;;;;;;2.78;2.58;;;;;;;35.66;29.93;101044.00;4748187;30;20729;-86